Time;durP1;ratioP1;P1;durP2;ratioP2;P2;SDS_P1;SDS_P2;PMS_P1;PMS_P2;Temp;Humidity;BMP_temperature;BMP_pressure;BME280_temperature;BME280_humidity;BME280_pressure;Samples;Min_cycle;Max_cycle;Signal;HPM_P1;HPM_P2
2022/05/31 00:00:07;;;;;;;;;6.50;4.75;;;;;14.97;95.96;100826.03;6279827;22;44981;-86
2022/05/31 00:02:32;;;;;;;;;6.20;4.80;;;;;14.95;95.68;100825.31;6275222;22;44669;-84
2022/05/31 00:04:58;;;;;;;;;5.25;5.25;;;;;14.91;95.95;100825.56;6274787;22;44813;-84
2022/05/31 00:07:24;;;;;;;;;4.00;4.00;;;;;14.91;96.12;100828.22;6275208;22;45254;-84
2022/05/31 00:09:49;;;;;;;;;4.00;3.00;;;;;14.93;96.68;100821.91;6275464;22;46249;-84
2022/05/31 00:12:15;;;;;;;;;6.00;4.00;;;;;14.91;96.35;100833.59;6281962;22;45268;-84
2022/05/31 00:14:41;;;;;;;;;5.25;5.25;;;;;14.93;96.47;100827.25;6280127;22;44594;-84
2022/05/31 00:17:07;;;;;;;;;4.75;3.50;;;;;14.92;95.73;100823.72;6274497;22;45152;-83
2022/05/31 00:19:33;;;;;;;;;5.25;5.25;;;;;14.90;96.84;100815.84;6275667;22;45003;-84
2022/05/31 00:22:16;;;;;;;;;2.50;2.50;;;;;14.89;96.56;100810.59;6277217;22;45267;-84
2022/05/31 00:24:42;;;;;;;;;3.40;3.40;;;;;14.82;97.91;100810.28;6274860;22;45246;-84
2022/05/31 00:27:09;;;;;;;;;6.50;3.75;;;;;14.81;96.94;100808.59;6275194;22;45156;-83
2022/05/31 00:29:35;;;;;;;;;3.20;3.20;;;;;14.80;96.93;100812.25;6248007;22;47256;-84
2022/05/31 00:32:03;;;;;;;;;4.25;4.25;;;;;14.75;98.60;100811.78;6276584;22;44723;-84
2022/05/31 00:34:32;;;;;;;;;3.20;3.20;;;;;14.74;97.73;100803.84;6275519;22;45313;-83
2022/05/31 00:36:57;;;;;;;;;4.25;3.50;;;;;14.71;97.84;100806.81;6248764;22;44801;-84
2022/05/31 00:39:24;;;;;;;;;3.00;3.00;;;;;14.69;97.49;100814.09;6252429;22;46808;-83
2022/05/31 00:42:07;;;;;;;;;4.20;3.20;;;;;14.67;97.24;100818.72;6257557;22;45361;-84
2022/05/31 00:44:34;;;;;;;;;3.40;3.40;;;;;14.66;96.75;100812.53;6250721;22;44757;-84
2022/05/31 00:47:07;;;;;;;;;2.80;2.40;;;;;14.64;97.02;100814.47;6253152;22;45473;-84
2022/05/31 00:49:37;;;;;;;;;5.80;3.00;;;;;14.63;97.58;100813.63;6283980;22;45314;-84
2022/05/31 00:52:24;;;;;;;;;2.60;2.60;;;;;14.60;96.99;100813.91;6290401;22;44729;-84
2022/05/31 00:55:20;;;;;;;;;1.60;1.60;;;;;14.60;98.06;100824.59;6280775;22;45411;-84
2022/05/31 00:58:08;;;;;;;;;2.00;2.00;;;;;14.59;97.85;100816.69;6282546;22;44694;-86
2022/05/31 01:00:36;;;;;;;;;4.80;2.00;;;;;14.58;97.60;100817.66;6253763;22;46822;-84
2022/05/31 01:03:04;;;;;;;;;5.20;2.80;;;;;14.58;97.87;100812.31;6275278;22;44759;-85
2022/05/31 01:05:30;;;;;;;;;3.60;2.80;;;;;14.57;96.44;100802.59;6280250;22;44794;-85
2022/05/31 01:07:56;;;;;;;;;3.75;3.00;;;;;14.55;97.70;100802.72;6288964;22;44733;-84
2022/05/31 01:10:22;;;;;;;;;2.00;2.00;;;;;14.54;96.81;100802.84;6289462;22;45342;-83
2022/05/31 01:12:49;;;;;;;;;5.25;3.00;;;;;14.55;97.39;100802.72;6285459;22;44793;-84
2022/05/31 01:15:16;;;;;;;;;2.40;2.40;;;;;14.55;98.67;100808.09;6283922;22;45294;-84
2022/05/31 01:17:43;;;;;;;;;5.20;3.60;;;;;14.52;97.36;100802.97;6250969;22;44786;-84
2022/05/31 01:20:11;;;;;;;;;2.00;2.00;;;;;14.51;99.45;100798.63;6278344;22;45447;-84
2022/05/31 01:22:40;;;;;;;;;2.00;2.00;;;;;14.47;100.00;100799.81;6249811;22;45339;-83
2022/05/31 01:25:10;;;;;;;;;3.00;3.00;;;;;14.48;100.00;100804.19;6250993;22;44751;-84
2022/05/31 01:27:50;;;;;;;;;2.00;2.00;;;;;14.48;98.44;100800.69;6281554;22;45298;-84
2022/05/31 01:30:17;;;;;;;;;6.80;3.60;;;;;14.50;97.47;100799.56;6253070;22;45087;-85
2022/05/31 01:32:58;;;;;;;;;3.40;3.40;;;;;14.49;99.60;100805.88;6248142;22;44762;-85
2022/05/31 01:35:34;;;;;;;;;3.00;3.00;;;;;14.47;99.56;100806.97;6249637;22;44729;-85
2022/05/31 01:38:15;;;;;;;;;2.60;1.80;;;;;14.43;99.79;100805.53;6282211;22;45178;-83
2022/05/31 01:40:49;;;;;;;;;4.00;3.00;;;;;14.43;99.27;100800.19;6277058;22;45261;-85
2022/05/31 01:43:15;;;;;;;;;3.80;2.40;;;;;14.43;98.37;100798.34;6275502;22;45164;-85
2022/05/31 01:45:54;;;;;;;;;3.00;2.75;;;;;14.45;97.86;100799.06;6275372;22;45330;-85
2022/05/31 01:48:21;;;;;;;;;1.80;1.80;;;;;14.47;97.76;100798.97;6275509;22;44755;-85
2022/05/31 01:50:46;;;;;;;;;3.20;2.00;;;;;14.47;98.00;100804.31;6276272;22;45223;-84
2022/05/31 01:53:15;;;;;;;;;2.50;2.50;;;;;14.45;99.21;100792.88;6248636;22;44760;-85
2022/05/31 01:55:43;;;;;;;;;2.00;1.00;;;;;14.43;99.07;100795.69;6248437;22;45199;-84
2022/05/31 01:58:18;;;;;;;;;1.80;1.80;;;;;14.41;99.11;100803.00;6280060;22;44733;-84
2022/05/31 02:00:44;;;;;;;;;3.00;3.00;;;;;14.40;99.44;100795.91;6257097;22;46639;-84
2022/05/31 02:03:11;;;;;;;;;2.20;2.20;;;;;14.42;99.71;100810.03;6259168;22;44727;-87
2022/05/31 02:05:50;;;;;;;;;2.20;2.00;;;;;14.43;99.30;100806.38;6270092;22;44749;-85
2022/05/31 02:08:18;;;;;;;;;1.20;1.20;;;;;14.45;98.58;100808.91;6292543;22;45231;-88
2022/05/31 02:10:45;;;;;;;;;2.20;2.20;;;;;14.49;97.51;100813.06;6288894;22;45250;-86
2022/05/31 02:13:11;;;;;;;;;2.40;2.40;;;;;14.48;97.52;100809.53;6286252;22;44853;-86
2022/05/31 02:15:37;;;;;;;;;1.75;1.75;;;;;14.52;97.30;100810.16;6286157;22;45473;-87
2022/05/31 02:18:02;;;;;;;;;3.00;3.00;;;;;14.51;98.50;100813.81;6284770;22;45162;-87
2022/05/31 02:20:28;;;;;;;;;3.00;2.00;;;;;14.49;99.31;100811.25;6254574;22;45301;-86
2022/05/31 02:22:53;;;;;;;;;3.00;3.00;;;;;14.53;98.28;100811.84;6283467;22;45105;-88
2022/05/31 02:25:19;;;;;;;;;3.00;3.00;;;;;14.53;98.97;100807.34;6281273;22;44745;-87
2022/05/31 02:27:46;;;;;;;;;3.00;1.50;;;;;14.53;98.49;100811.84;6281102;22;44776;-87
2022/05/31 02:30:12;;;;;;;;;2.00;2.00;;;;;14.53;97.67;100811.84;6258211;22;45106;-86
2022/05/31 02:32:38;;;;;;;;;2.50;2.50;;;;;14.53;97.18;100807.34;6255674;22;44751;-85
2022/05/31 02:35:05;;;;;;;;;2.60;2.60;;;;;14.54;97.03;100810.88;6288857;22;44741;-86
2022/05/31 02:37:31;;;;;;;;;3.20;2.20;;;;;14.57;95.96;100811.47;6262467;22;44726;-87
2022/05/31 02:39:57;;;;;;;;;2.20;1.80;;;;;14.55;96.92;100802.72;6265188;22;45140;-87
2022/05/31 02:42:23;;;;;;;;;2.00;2.00;;;;;14.58;97.13;100810.47;6265705;22;44682;-86
2022/05/31 02:44:48;;;;;;;;;2.50;1.25;;;;;14.58;96.25;100812.31;6256488;22;44792;-87
2022/05/31 02:47:14;;;;;;;;;2.25;2.25;;;;;14.58;97.63;100810.47;6285656;22;44771;-87
2022/05/31 02:49:43;;;;;;;;;2.00;2.00;;;;;14.58;98.90;100806.97;6288530;22;45279;-86
2022/05/31 02:52:08;;;;;;;;;3.40;3.40;;;;;14.55;97.38;100808.09;6261409;22;44762;-86
2022/05/31 02:54:34;;;;;;;;;2.00;2.00;;;;;14.55;97.04;100807.22;6255707;22;44709;-86
2022/05/31 02:56:59;;;;;;;;;2.00;2.00;;;;;14.58;94.82;100812.31;6283082;22;45310;-86
2022/05/31 02:59:25;;;;;;;;;1.25;1.25;;;;;14.58;95.76;100817.66;6284474;22;46707;-87
2022/05/31 03:01:51;;;;;;;;;1.25;1.25;;;;;14.58;96.16;100810.47;6289437;22;44697;-86
2022/05/31 03:04:18;;;;;;;;;3.20;2.00;;;;;14.58;97.52;100802.47;6292123;22;44646;-87
2022/05/31 03:06:43;;;;;;;;;2.00;2.00;;;;;14.58;99.78;100806.97;6287478;22;44804;-88
2022/05/31 03:09:09;;;;;;;;;2.00;2.00;;;;;14.55;100.00;100802.72;6284834;22;45200;-87
2022/05/31 03:11:46;;;;;;;;;4.00;3.00;;;;;14.52;100.00;100800.31;6285791;22;44593;-86
2022/05/31 03:14:24;;;;;;;;;2.20;2.20;;;;;14.50;100.00;100796.03;6255847;22;45199;-86
2022/05/31 03:17:12;;;;;;;;;3.00;3.00;;;;;14.44;100.00;100788.50;6253567;22;45271;-87
2022/05/31 03:19:44;;;;;;;;;2.60;2.60;;;;;14.38;100.00;100804.06;6253099;22;47121;-86
2022/05/31 03:22:16;;;;;;;;;1.80;1.80;;;;;14.33;100.00;100790.25;6278331;22;45349;-87
2022/05/31 03:24:47;;;;;;;;;3.60;3.60;;;;;14.32;100.00;100807.25;6248603;22;44658;-87
2022/05/31 03:27:13;;;;;;;;;2.00;2.00;;;;;14.30;100.00;100803.84;6284471;22;44887;-86
2022/05/31 03:29:45;;;;;;;;;4.00;4.00;;;;;14.29;100.00;100802.16;6282722;22;46706;-88
2022/05/31 03:32:11;;;;;;;;;3.60;3.60;;;;;14.30;100.00;100808.34;6257905;22;44814;-87
2022/05/31 03:34:37;;;;;;;;;5.80;5.80;;;;;14.31;99.78;100807.34;6258041;22;44830;-87
2022/05/31 03:37:03;;;;;;;;;4.80;2.40;;;;;14.32;99.09;100812.59;6285651;22;44756;-86
2022/05/31 03:39:29;;;;;;;;;2.60;1.60;;;;;14.32;98.92;100806.41;6260516;22;46967;-86
2022/05/31 03:41:54;;;;;;;;;2.00;2.00;;;;;14.31;99.46;100800.22;6255248;22;44662;-85
2022/05/31 03:44:24;;;;;;;;;3.00;2.00;;;;;14.31;99.21;100799.34;6250024;22;45285;-86
2022/05/31 03:46:49;;;;;;;;;2.00;2.00;;;;;14.30;100.00;100797.66;6252390;22;45297;-86
2022/05/31 03:49:15;;;;;;;;;3.00;3.00;;;;;14.27;100.00;100805.94;6252290;22;46370;-86
2022/05/31 03:51:42;;;;;;;;;2.50;2.50;;;;;14.22;99.53;100814.31;6281692;22;44736;-87
2022/05/31 03:54:08;;;;;;;;;4.00;4.00;;;;;14.21;99.69;100809.94;6253684;22;44744;-86
2022/05/31 03:56:35;;;;;;;;;5.00;4.00;;;;;14.19;99.91;100806.53;6279640;22;45556;-85
2022/05/31 03:59:01;;;;;;;;;3.25;3.25;;;;;14.18;99.06;100806.69;6280476;22;45956;-86
2022/05/31 04:01:26;;;;;;;;;6.00;3.75;;;;;14.18;98.18;100810.19;6256648;22;44825;-85
2022/05/31 04:03:52;;;;;;;;;6.00;3.75;;;;;14.20;98.33;100808.25;6284412;22;44777;-86
2022/05/31 04:06:18;;;;;;;;;5.00;5.00;;;;;14.21;97.87;100807.25;6253170;22;44791;-86
2022/05/31 04:08:43;;;;;;;;;4.00;4.00;;;;;14.22;97.25;100811.66;6280380;22;45196;-86
2022/05/31 04:11:09;;;;;;;;;5.25;2.75;;;;;14.23;98.00;100802.66;6257071;22;44731;-87
2022/05/31 04:13:34;;;;;;;;;5.25;4.50;;;;;14.24;98.12;100796.34;6282643;22;45897;-86
2022/05/31 04:16:10;;;;;;;;;5.25;3.00;;;;;14.24;100.00;100796.34;6256796;22;44826;-88
2022/05/31 04:18:37;;;;;;;;;7.00;6.25;;;;;14.24;100.00;100801.69;6285429;22;45427;-87
2022/05/31 04:21:05;;;;;;;;;5.40;5.40;;;;;14.24;100.00;100796.34;6257567;22;44765;-88
2022/05/31 04:26:17;;;;;;;;;6.75;6.75;;;;;14.22;100.00;100792.94;6279978;22;45189;-87
2022/05/31 04:28:43;;;;;;;;;6.25;5.50;;;;;14.21;100.00;100787.72;6288044;22;45433;-87
2022/05/31 04:31:09;;;;;;;;;8.60;6.20;;;;;14.21;100.00;100787.72;6266684;22;44592;-85
2022/05/31 04:33:34;;;;;;;;;5.25;5.25;;;;;14.22;100.00;100795.63;6270014;22;44717;-87
2022/05/31 04:36:03;;;;;;;;;4.00;4.00;;;;;14.27;100.00;100792.56;6263020;22;45333;-88
2022/05/31 04:38:28;;;;;;;;;4.80;4.80;;;;;14.28;100.00;100781.75;6258110;22;46792;-85
2022/05/31 04:40:54;;;;;;;;;6.75;6.75;;;;;14.31;100.00;100780.63;6286950;22;44678;-87
2022/05/31 04:43:20;;;;;;;;;7.00;6.00;;;;;14.38;100.00;100788.03;6260883;22;45381;-87
2022/05/31 04:45:49;;;;;;;;;6.00;6.00;;;;;14.47;100.00;100788.25;6257489;22;44815;-87
2022/05/31 04:48:14;;;;;;;;;4.80;4.60;;;;;14.51;100.00;100793.25;6275855;22;46587;-87
2022/05/31 04:50:40;;;;;;;;;6.50;6.50;;;;;14.52;100.00;100797.63;6250931;22;44805;-89
2022/05/31 04:53:06;;;;;;;;;5.75;5.75;;;;;14.51;100.00;100805.78;6277549;22;45271;-87
2022/05/31 04:55:36;;;;;;;;;7.75;6.75;;;;;14.58;100.00;100804.28;6253444;22;45352;-87
2022/05/31 04:58:02;;;;;;;;;10.50;7.50;;;;;14.64;100.00;100804.63;6232992;22;47106;-87
2022/05/31 05:00:27;;;;;;;;;5.75;5.50;;;;;14.72;100.00;100800.47;6291034;22;44668;-88
2022/05/31 05:02:53;;;;;;;;;10.50;10.50;;;;;14.69;100.00;100804.25;6257349;22;44674;-87
2022/05/31 05:05:18;;;;;;;;;9.50;6.25;;;;;14.74;100.00;100812.72;6282737;22;45275;-88
2022/05/31 05:07:44;;;;;;;;;7.50;6.25;;;;;14.76;100.00;100809.94;6281473;22;45553;-87
2022/05/31 05:10:10;;;;;;;;;6.25;6.25;;;;;14.83;100.00;100816.47;6257925;22;44694;-88
2022/05/31 05:12:36;;;;;;;;;6.25;6.00;;;;;14.86;100.00;100809.03;6283731;22;45243;-88
2022/05/31 05:15:02;;;;;;;;;4.50;4.50;;;;;14.92;100.00;100810.34;6282154;22;45362;-84
2022/05/31 05:17:27;;;;;;;;;7.75;7.25;;;;;15.12;100.00;100820.22;6280498;22;45187;-86
2022/05/31 05:19:53;;;;;;;;;11.50;7.25;;;;;15.29;100.00;100821.47;6281794;22;45299;-85
2022/05/31 05:22:18;;;;;;;;;5.75;5.75;;;;;15.48;100.00;100828.78;6285341;22;45141;-86
2022/05/31 05:24:44;;;;;;;;;8.25;8.25;;;;;15.55;100.00;100824.56;6279100;22;45172;-84
2022/05/31 05:27:09;;;;;;;;;10.00;9.00;;;;;15.74;99.51;100825.69;6283777;22;44852;-84
2022/05/31 05:32:19;;;;;;;;;9.00;8.40;;;;;15.90;98.02;100836.75;6284851;22;45198;-85
2022/05/31 05:34:49;;;;;;;;;13.00;10.00;;;;;15.79;98.06;100831.50;6250610;22;44737;-87
2022/05/31 05:37:16;;;;;;;;;9.20;7.40;;;;;15.80;98.95;100841.22;6274525;22;45318;-84
2022/05/31 05:39:41;;;;;;;;;10.80;7.80;;;;;15.74;98.25;100839.94;6275477;22;44695;-84
2022/05/31 05:42:07;;;;;;;;;9.25;8.75;;;;;15.66;98.53;100837.06;6274513;22;45376;-85
2022/05/31 05:44:32;;;;;;;;;10.25;6.25;;;;;15.80;98.90;100842.06;6275483;22;44812;-86
2022/05/31 05:46:58;;;;;;;;;9.50;6.25;;;;;15.93;96.88;100839.16;6276355;22;45294;-85
2022/05/31 05:49:23;;;;;;;;;7.00;6.75;;;;;16.11;95.45;100844.75;6278561;22;44814;-86
2022/05/31 05:51:49;;;;;;;;;5.75;5.75;;;;;16.18;94.55;100840.53;6251814;22;44773;-85
2022/05/31 05:54:14;;;;;;;;;7.00;4.40;;;;;16.32;93.67;100833.94;6278226;22;45521;-86
2022/05/31 05:56:40;;;;;;;;;7.75;7.75;;;;;16.42;93.32;100849.06;6276185;22;44985;-84
2022/05/31 05:59:06;;;;;;;;;4.50;4.50;;;;;16.47;92.06;100847.81;6259504;22;45221;-84
2022/05/31 06:01:38;;;;;;;;;8.60;7.00;;;;;16.42;93.19;100853.56;6288238;22;45226;-85
2022/05/31 06:04:25;;;;;;;;;7.50;6.25;;;;;16.48;93.76;100853.00;6281755;22;44741;-84
2022/05/31 06:07:12;;;;;;;;;3.40;3.40;;;;;16.52;91.76;100851.75;6253763;22;46976;-86
2022/05/31 06:09:43;;;;;;;;;4.20;4.20;;;;;16.53;91.68;100855.28;6278896;22;45257;-83
2022/05/31 06:12:15;;;;;;;;;6.60;5.00;;;;;16.51;91.53;100859.94;6251880;22;44737;-84
2022/05/31 06:15:08;;;;;;;;;6.75;5.50;;;;;16.41;92.79;100851.88;6278957;22;45310;-85
2022/05/31 06:17:40;;;;;;;;;9.80;6.40;;;;;16.37;92.47;100862.03;6278821;22;45516;-85
2022/05/31 06:20:07;;;;;;;;;7.20;5.60;;;;;16.27;93.51;100853.13;6256197;22;44714;-84
2022/05/31 06:22:35;;;;;;;;;6.00;6.00;;;;;16.30;92.78;100860.06;6277862;22;44616;-85
2022/05/31 06:25:01;;;;;;;;;6.20;4.60;;;;;16.35;92.54;100857.81;6253508;22;44876;-84
2022/05/31 06:27:27;;;;;;;;;4.75;4.75;;;;;16.42;92.33;100856.25;6257994;22;46521;-84
2022/05/31 06:29:54;;;;;;;;;7.00;5.40;;;;;16.48;91.94;100861.06;6290412;22;44781;-84
2022/05/31 06:32:20;;;;;;;;;6.20;6.20;;;;;16.50;91.49;100856.44;6261632;22;44677;-85
2022/05/31 06:34:45;;;;;;;;;4.40;3.40;;;;;16.51;91.98;100863.47;6259847;22;45350;-85
2022/05/31 06:37:13;;;;;;;;;5.25;5.25;;;;;16.61;91.89;100860.81;6257327;22;46550;-87
2022/05/31 06:39:41;;;;;;;;;7.20;5.40;;;;;16.70;91.34;100860.00;6259434;22;44741;-85
2022/05/31 06:42:07;;;;;;;;;2.00;2.00;;;;;16.74;90.25;100857.91;6257673;22;44824;-84
2022/05/31 06:44:34;;;;;;;;;9.00;7.50;;;;;16.81;90.38;100862.56;6257685;22;45423;-85
2022/05/31 06:47:00;;;;;;;;;6.80;5.60;;;;;16.99;89.01;100859.19;6282360;22;45186;-86
2022/05/31 06:49:25;;;;;;;;;8.75;7.50;;;;;17.08;87.94;100864.56;6253186;22;44840;-85
2022/05/31 06:57:19;;;;;;;;;9.00;6.60;;;;;17.61;82.90;100868.59;6285470;22;44894;-84
2022/05/31 06:59:44;;;;;;;;;8.25;8.25;;;;;17.71;82.95;100869.41;6288247;22;44725;-84
2022/05/31 07:02:10;;;;;;;;;9.00;7.25;;;;;17.82;82.25;100863.06;6256425;22;45290;-84
2022/05/31 07:04:38;;;;;;;;;6.00;6.00;;;;;17.91;83.70;100859.47;6252690;22;45173;-85
2022/05/31 07:07:04;;;;;;;;;5.60;5.60;;;;;17.96;83.33;100862.56;6252254;22;46875;-84
2022/05/31 07:09:29;;;;;;;;;12.00;6.80;;;;;17.97;80.66;100865.09;6252398;22;44718;-85
2022/05/31 07:11:56;;;;;;;;;8.75;7.25;;;;;18.08;80.75;100865.91;6257928;22;44659;-84
2022/05/31 07:14:26;;;;;;;;;8.60;8.00;;;;;18.09;80.86;100864.94;6285976;22;45464;-86
2022/05/31 07:16:51;;;;;;;;;4.80;4.80;;;;;17.83;77.47;100873.66;6253024;22;45485;-84
2022/05/31 07:19:17;;;;;;;;;4.75;4.75;;;;;17.73;81.36;100870.16;6250041;22;45324;-85
2022/05/31 07:21:42;;;;;;;;;7.25;7.25;;;;;17.90;81.48;100871.25;6276528;22;44945;-83
2022/05/31 07:24:08;;;;;;;;;6.25;6.25;;;;;17.94;81.88;100865.41;6275915;22;45266;-85
2022/05/31 07:26:33;;;;;;;;;9.25;8.25;;;;;17.97;82.59;100867.78;6274700;22;45175;-85
2022/05/31 07:28:59;;;;;;;;;8.50;6.75;;;;;17.98;82.96;100868.63;6278231;22;45302;-85
2022/05/31 07:31:24;;;;;;;;;8.00;6.50;;;;;18.19;81.20;100871.97;6284550;22;45329;-84
2022/05/31 07:33:49;;;;;;;;;7.75;5.50;;;;;17.98;80.67;100874.00;6281608;22;44768;-83
2022/05/31 07:36:15;;;;;;;;;5.25;5.25;;;;;17.78;81.41;100872.38;6280425;22;45200;-85
2022/05/31 07:38:41;;;;;;;;;7.75;7.75;;;;;17.72;81.29;100874.63;6277480;22;45395;-84
2022/05/31 07:41:07;;;;;;;;;8.00;7.00;;;;;17.71;80.27;100875.63;6248543;22;45231;-84
2022/05/31 07:43:33;;;;;;;;;9.60;6.20;;;;;17.79;80.96;100874.09;6277179;22;44701;-85
2022/05/31 07:46:10;;;;;;;;;7.25;6.25;;;;;17.90;78.98;100887.38;6276509;22;45024;-84
2022/05/31 07:48:37;;;;;;;;;5.40;4.40;;;;;17.79;80.90;100882.16;6282242;22;45385;-83
2022/05/31 07:51:04;;;;;;;;;6.80;6.00;;;;;17.74;80.61;100882.56;6284208;22;45266;-83
2022/05/31 07:53:30;;;;;;;;;10.20;8.80;;;;;17.86;80.39;100880.59;6279933;22;45240;-84
2022/05/31 07:56:07;;;;;;;;;5.00;4.00;;;;;17.87;75.36;100888.50;6276342;22;45345;-83
2022/05/31 07:58:38;;;;;;;;;7.80;6.40;;;;;17.88;76.54;100889.34;6278072;22;44736;-83
2022/05/31 08:01:06;;;;;;;;;3.60;3.60;;;;;18.00;76.19;100884.66;6283887;22;45331;-84
2022/05/31 08:03:33;;;;;;;;;4.80;4.00;;;;;18.17;75.40;100894.59;6279766;22;44788;-83
2022/05/31 08:06:02;;;;;;;;;5.60;5.00;;;;;18.13;76.08;100886.00;6275315;22;45432;-83
2022/05/31 08:08:28;;;;;;;;;4.20;4.20;;;;;18.13;77.10;100886.00;6274983;22;44650;-84
2022/05/31 08:10:53;;;;;;;;;7.00;6.25;;;;;18.17;75.19;100884.69;6275123;22;44593;-84
2022/05/31 08:13:18;;;;;;;;;6.00;6.00;;;;;18.20;76.44;100884.41;6274732;22;44892;-83
2022/05/31 08:15:44;;;;;;;;;4.75;4.75;;;;;18.32;75.40;100890.44;6247727;22;45323;-83
2022/05/31 08:18:09;;;;;;;;;6.00;5.25;;;;;18.37;74.40;100880.09;6248664;22;44701;-85
2022/05/31 08:20:37;;;;;;;;;3.25;3.25;;;;;18.27;70.84;100884.66;6250404;22;45475;-84
2022/05/31 08:23:02;;;;;;;;;4.75;3.50;;;;;18.20;71.25;100878.19;6275484;22;44756;-84
2022/05/31 08:25:28;;;;;;;;;6.75;4.25;;;;;18.07;71.83;100881.19;6275999;22;45242;-84
2022/05/31 08:27:53;;;;;;;;;4.75;4.75;;;;;18.10;71.80;100886.28;6278095;22;44674;-85
2022/05/31 08:30:19;;;;;;;;;7.25;4.75;;;;;17.97;72.66;100889.31;6287657;22;44658;-85
2022/05/31 08:32:44;;;;;;;;;8.75;5.00;;;;;17.87;73.28;100884.97;6294588;22;44670;-86
2022/05/31 08:35:09;;;;;;;;;4.00;4.00;;;;;17.77;71.07;100892.19;6296287;22;45076;-84
2022/05/31 08:37:35;;;;;;;;;7.25;5.00;;;;;17.81;73.32;100888.25;6292781;22;44628;-86
2022/05/31 08:40:00;;;;;;;;;8.75;6.50;;;;;17.65;73.44;100884.28;6284960;22;44642;-85
2022/05/31 08:42:48;;;;;;;;;9.00;5.50;;;;;17.89;72.25;100883.84;6258477;22;44959;-88
2022/05/31 08:45:47;;;;;;;;;5.00;4.60;;;;;18.11;72.71;100892.50;6256312;22;45560;-85
2022/05/31 08:48:39;;;;;;;;;4.00;4.00;;;;;18.28;73.51;100885.53;6284975;22;44702;-85
2022/05/31 08:56:58;;;;;;;;;5.40;5.40;;;;;18.45;71.32;100890.94;6287036;22;45010;-85
2022/05/31 08:59:36;;;;;;;;;3.80;3.80;;;;;18.52;72.20;100890.31;6261456;22;44717;-85
2022/05/31 09:02:12;;;;;;;;;5.40;5.40;;;;;18.41;71.76;100896.75;6286913;22;45289;-85
2022/05/31 09:04:44;;;;;;;;;5.60;5.60;;;;;18.72;69.98;100892.78;6278457;22;44805;-84
2022/05/31 09:07:17;;;;;;;;;5.60;5.40;;;;;18.91;68.12;100899.06;6278088;22;45010;-85
2022/05/31 09:10:04;;;;;;;;;5.00;5.00;;;;;19.10;68.28;100893.53;6277415;22;44757;-86
2022/05/31 09:12:55;;;;;;;;;6.40;5.60;;;;;19.39;67.36;100895.09;6278968;22;44683;-85
2022/05/31 09:15:32;;;;;;;;;5.40;5.40;;;;;19.76;66.69;100894.91;6268092;22;45280;-84
2022/05/31 09:18:23;;;;;;;;;4.80;4.00;;;;;20.11;64.96;100896.63;6248525;22;46755;-84
2022/05/31 09:20:56;;;;;;;;;4.80;4.80;;;;;20.16;61.53;100896.13;6247714;22;45377;-83
2022/05/31 09:23:25;;;;;;;;;3.40;3.20;;;;;20.40;61.31;100890.84;6277380;22;45292;-85
2022/05/31 09:26:10;;;;;;;;;3.60;3.60;;;;;20.61;60.94;100887.75;6279404;22;45377;-84
2022/05/31 09:29:07;;;;;;;;;4.20;4.20;;;;;20.86;58.46;100893.22;6275917;22;45405;-85
2022/05/31 09:32:06;;;;;;;;;5.00;4.00;;;;;21.07;56.68;100895.44;6281145;22;44810;-85
2022/05/31 09:35:00;;;;;;;;;3.00;3.00;;;;;21.34;56.60;100889.75;6250427;22;44651;-85
2022/05/31 09:37:44;;;;;;;;;3.80;3.20;;;;;21.52;55.21;100895.00;6275953;22;45345;-84
2022/05/31 09:40:28;;;;;;;;;4.40;4.40;;;;;21.65;54.13;100900.72;6278308;22;45484;-87
2022/05/31 09:43:24;;;;;;;;;4.00;3.20;;;;;21.75;52.97;100901.38;6285410;22;44748;-86
2022/05/31 09:45:59;;;;;;;;;3.80;2.60;;;;;21.66;50.55;100896.13;6282332;22;44825;-85
2022/05/31 09:48:25;;;;;;;;;3.00;3.00;;;;;21.75;49.75;100887.84;6277267;22;45244;-86
2022/05/31 09:50:57;;;;;;;;;4.25;3.00;;;;;21.95;49.12;100885.63;6275492;22;45250;-86
2022/05/31 09:59:09;;;;;;;;;5.00;2.40;;;;;22.54;45.64;100880.69;6157938;23;44746;-87
2022/05/31 10:01:43;;;;;;;;;2.20;2.20;;;;;22.71;44.82;100886.00;6138122;23;47153;-87
2022/05/31 10:04:13;;;;;;;;;3.00;3.00;;;;;22.98;45.73;100882.81;6138655;23;44790;-89
2022/05/31 10:07:03;;;;;;;;;3.00;3.00;;;;;22.88;42.70;100892.19;6159234;23;44755;-86
2022/05/31 10:09:40;;;;;;;;;2.00;2.00;;;;;22.83;41.68;100880.00;6155652;23;44779;-84
2022/05/31 10:12:22;;;;;;;;;3.60;3.60;;;;;22.65;38.82;100887.56;6152109;23;45262;-87
2022/05/31 10:14:50;;;;;;;;;4.00;3.00;;;;;22.58;40.49;100881.19;6151520;23;45459;-86
2022/05/31 10:17:27;;;;;;;;;1.00;1.00;;;;;22.12;41.84;100883.72;6130213;23;44774;-88
2022/05/31 10:20:19;;;;;;;;;2.20;2.20;;;;;22.09;42.23;100897.56;6156044;23;44831;-85
2022/05/31 10:22:56;;;;;;;;;4.00;4.00;;;;;21.85;43.67;100892.22;6146065;23;45347;-85
2022/05/31 10:25:36;;;;;;;;;7.60;3.40;;;;;21.72;44.86;100880.09;6151777;23;44923;-85
2022/05/31 10:28:10;;;;;;;;;3.00;3.00;;;;;21.59;44.79;100876.22;6152606;23;44745;-86
2022/05/31 10:30:36;;;;;;;;;1.60;1.60;;;;;21.28;43.20;100871.50;6156393;23;44625;-86
2022/05/31 10:33:22;;;;;;;;;2.20;2.20;;;;;21.47;43.46;100870.34;6237345;22;44959;-86
2022/05/31 10:36:21;;;;;;;;;2.20;2.20;;;;;21.46;43.09;100877.56;6274925;22;45274;-85
2022/05/31 10:38:48;;;;;;;;;5.40;3.00;;;;;21.45;41.30;100881.28;6269088;22;44895;-86
2022/05/31 10:41:29;;;;;;;;;2.00;2.00;;;;;21.50;41.23;100883.50;6275630;22;45325;-86
2022/05/31 10:44:15;;;;;;;;;3.00;3.00;;;;;21.73;39.41;100876.38;6274302;22;45377;-86
2022/05/31 10:46:45;;;;;;;;;4.00;3.40;;;;;20.99;40.32;100883.63;6248359;22;45308;-87
2022/05/31 10:49:18;;;;;;;;;2.00;2.00;;;;;20.79;41.41;100888.50;6277287;22;45324;-86
2022/05/31 10:52:00;;;;;;;;;2.80;2.00;;;;;20.86;41.98;100885.13;6279612;22;45595;-87
2022/05/31 10:54:28;;;;;;;;;2.00;2.00;;;;;20.52;41.52;100880.66;6251163;22;46609;-84
2022/05/31 10:57:12;;;;;;;;;2.80;2.80;;;;;20.67;42.04;100873.59;6276814;22;45200;-85
2022/05/31 10:59:52;;;;;;;;;6.00;4.40;;;;;21.13;42.14;100874.03;6278524;22;45250;-87
2022/05/31 11:02:46;;;;;;;;;3.00;3.00;;;;;21.24;41.89;100879.09;6284809;22;44748;-86
2022/05/31 11:05:17;;;;;;;;;2.20;2.20;;;;;21.55;42.28;100884.66;6283246;22;45239;-86
2022/05/31 11:11:29;;;;;;;;;2.80;2.80;;;;;21.63;41.13;100882.97;6289893;22;45255;-87
2022/05/31 11:14:24;;;;;;;;;2.40;1.60;;;;;22.52;40.10;100880.00;6285776;22;44848;-85
2022/05/31 11:17:01;;;;;;;;;0.60;0.60;;;;;22.72;38.74;100885.81;6279205;22;45233;-86
2022/05/31 11:19:52;;;;;;;;;3.00;3.00;;;;;22.88;37.10;100887.59;6283988;22;44685;-85
2022/05/31 11:22:40;;;;;;;;;2.60;2.20;;;;;22.56;38.03;100899.44;6265060;22;44661;-85
2022/05/31 11:25:23;;;;;;;;;3.00;3.00;;;;;22.45;39.17;100895.28;6278956;22;45081;-84
2022/05/31 11:27:51;;;;;;;;;4.00;2.60;;;;;22.19;37.95;100890.16;6252299;22;46753;-86
2022/05/31 11:30:21;;;;;;;;;2.80;2.60;;;;;21.92;39.88;100879.72;6283152;22;44588;-85
2022/05/31 11:33:34;;;;;;;;;2.00;2.00;;;;;22.24;40.62;100878.78;6263291;22;45473;-85
2022/05/31 11:36:47;;;;;;;;;4.00;2.00;;;;;22.99;39.15;100889.91;6282889;22;44696;-85
2022/05/31 11:39:39;;;;;;;;;2.00;2.00;;;;;23.46;38.08;100894.31;6154232;23;45314;-84
2022/05/31 11:42:41;;;;;;;;;3.00;1.00;;;;;23.21;36.38;100898.22;6153033;23;45276;-87
2022/05/31 11:45:18;;;;;;;;;2.00;2.00;;;;;23.22;35.70;100905.34;6152235;23;45392;-87
2022/05/31 11:48:10;;;;;;;;;1.60;1.60;;;;;23.52;36.24;100901.69;6126262;23;45261;-87
2022/05/31 11:51:06;;;;;;;;;1.40;1.40;;;;;23.56;36.47;100908.44;6152786;23;45159;-86
2022/05/31 11:53:50;;;;;;;;;2.20;2.20;;;;;22.88;34.17;100898.44;6152601;23;45494;-86
2022/05/31 11:56:28;;;;;;;;;1.80;1.20;;;;;22.54;35.39;100896.09;6155415;23;44858;-86
2022/05/31 11:59:06;;;;;;;;;3.60;2.40;;;;;22.12;37.51;100899.13;6157128;23;44729;-87
2022/05/31 12:01:41;;;;;;;;;5.20;2.00;;;;;21.86;38.93;100889.38;6158083;23;45214;-86
2022/05/31 12:04:19;;;;;;;;;2.80;2.80;;;;;21.48;40.49;100890.94;6154494;23;45201;-86
2022/05/31 12:07:09;;;;;;;;;4.00;2.20;;;;;21.40;40.90;100894.47;6150381;23;45309;-86
2022/05/31 12:09:42;;;;;;;;;2.00;2.00;;;;;21.37;41.23;100892.13;6202694;22;44702;-86